Time;durP1;ratioP1;P1;durP2;ratioP2;P2;SDS_P1;SDS_P2;PMS_P1;PMS_P2;Temp;Humidity;BMP_temperature;BMP_pressure;BME280_temperature;BME280_humidity;BME280_pressure;Samples;Min_cycle;Max_cycle;Signal;HPM_P1;HPM_P2
2022/06/01 00:00:25;;;;;;;0.00;0.00;;;;;;;14.53;66.05;101460.34;5028254;28;20036;-77
2022/06/01 00:02:52;;;;;;;0.10;0.10;;;;;;;14.45;66.29;101471.19;5021517;28;20377;-76
2022/06/01 00:05:19;;;;;;;0.05;0.05;;;;;;;14.43;66.08;101465.03;5021242;28;20030;-76
2022/06/01 00:07:46;;;;;;;0.32;0.32;;;;;;;14.41;66.01;101469.53;5023559;28;20030;-77
2022/06/01 00:10:13;;;;;;;0.10;0.10;;;;;;;14.35;66.13;101461.69;5020878;28;20053;-76
2022/06/01 00:12:40;;;;;;;0.10;0.10;;;;;;;14.36;66.30;101464.31;5009653;28;20078;-77
2022/06/01 00:15:07;;;;;;;0.20;0.15;;;;;;;14.37;66.17;101459.88;5017962;28;20102;-76
2022/06/01 00:17:34;;;;;;;0.10;0.10;;;;;;;14.32;66.00;101457.31;5004140;28;20029;-77
2022/06/01 00:20:00;;;;;;;0.00;0.00;;;;;;;14.31;65.97;101460.03;5018675;28;20510;-77
2022/06/01 00:22:26;;;;;;;0.10;0.10;;;;;;;14.30;66.01;101458.28;5024271;28;20411;-77
2022/06/01 00:24:53;;;;;;;0.00;0.00;;;;;;;14.29;66.21;101453.84;5023497;28;20013;-76
2022/06/01 00:27:19;;;;;;;0.00;0.00;;;;;;;14.24;66.16;101453.97;5024094;28;20029;-77
2022/06/01 00:29:46;;;;;;;0.10;0.10;;;;;;;14.23;65.88;101449.53;5012875;28;20038;-76
2022/06/01 00:32:14;;;;;;;0.10;0.10;;;;;;;14.22;65.78;101435.34;5012047;28;20037;-76
2022/06/01 00:34:42;;;;;;;0.10;0.10;;;;;;;14.21;66.24;101438.06;5012947;28;20115;-76
2022/06/01 00:37:09;;;;;;;0.00;0.00;;;;;;;14.18;66.22;101433.69;5013991;28;20038;-77
2022/06/01 00:39:36;;;;;;;0.00;0.00;;;;;;;14.17;66.32;101442.59;5014004;28;20033;-77
2022/06/01 00:42:22;;;;;;;0.10;0.10;;;;;;;14.21;66.17;101438.91;5013733;28;20056;-77
2022/06/01 00:44:50;;;;;;;0.00;0.00;;;;;;;14.13;65.86;101446.25;5011455;28;20488;-77
2022/06/01 00:47:17;;;;;;;0.10;0.10;;;;;;;14.08;66.16;101445.47;5012138;28;20041;-77
2022/06/01 00:49:59;;;;;;;0.00;0.00;;;;;;;14.06;66.28;101447.31;5013386;28;20550;-77
2022/06/01 00:52:35;;;;;;;0.10;0.10;;;;;;;14.02;66.35;101449.19;5013593;28;20117;-75
2022/06/01 00:55:10;;;;;;;0.05;0.05;;;;;;;14.02;66.26;101448.31;5013396;28;20030;-77
2022/06/01 00:57:36;;;;;;;0.10;0.10;;;;;;;14.02;66.44;101450.97;5015362;28;20034;-77
2022/06/01 01:00:07;;;;;;;0.00;0.00;;;;;;;14.06;66.41;101449.97;5016476;28;20467;-76
2022/06/01 01:02:34;;;;;;;0.10;0.10;;;;;;;14.05;66.86;101448.22;5015175;28;20558;-77
2022/06/01 01:05:03;;;;;;;0.00;0.00;;;;;;;14.04;66.90;101454.47;5015897;28;20104;-76
2022/06/01 01:07:29;;;;;;;0.00;0.00;;;;;;;14.04;66.81;101451.78;5012970;28;20036;-76
2022/06/01 01:09:56;;;;;;;0.52;0.52;;;;;;;14.05;66.47;101450.88;5015591;28;20080;-77
2022/06/01 01:12:23;;;;;;;0.08;0.08;;;;;;;14.07;66.71;101457.06;5022230;28;20026;-76
2022/06/01 01:14:51;;;;;;;0.10;0.10;;;;;;;14.02;66.50;101458.97;5018212;28;20044;-76
2022/06/01 01:17:17;;;;;;;0.10;0.10;;;;;;;14.05;66.80;101464.22;5024007;28;20033;-76
2022/06/01 01:19:48;;;;;;;0.10;0.10;;;;;;;14.01;66.66;101455.41;5017301;28;20045;-77
2022/06/01 01:22:42;;;;;;;0.52;0.52;;;;;;;14.09;66.51;101449.88;5016176;28;20029;-76
2022/06/01 01:25:31;;;;;;;0.10;0.10;;;;;;;14.11;66.71;101453.41;5015395;28;20038;-76
2022/06/01 01:27:59;;;;;;;0.10;0.10;;;;;;;14.06;66.56;101452.66;5022852;28;20026;-76
2022/06/01 01:35:56;;;;;;;0.10;0.10;;;;;;;14.14;66.64;101455.97;5087829;28;20410;-74
2022/06/01 01:38:44;;;;;;;0.25;0.25;;;;;;;14.16;66.54;101454.16;5083113;28;20051;-75
2022/06/01 01:41:32;;;;;;;0.00;0.00;;;;;;;14.18;66.21;101460.34;5070617;28;20119;-75
2022/06/01 01:44:22;;;;;;;0.10;0.10;;;;;;;14.20;66.12;101458.47;5082912;28;20032;-76
2022/06/01 01:46:50;;;;;;;0.10;0.10;;;;;;;14.18;66.44;101448.78;5080845;28;20035;-76
2022/06/01 01:49:21;;;;;;;0.00;0.00;;;;;;;14.20;66.43;101446.97;5079485;28;20032;-75
2022/06/01 01:51:49;;;;;;;0.10;0.10;;;;;;;14.14;66.47;101437.31;5074786;28;20401;-75
2022/06/01 01:54:45;;;;;;;0.10;0.10;;;;;;;14.15;66.08;101433.75;5084637;28;20067;-75
2022/06/01 02:03:21;;;;;;;0.00;0.00;;;;;;;13.99;65.65;101441.25;5108199;27;20758;-77
2022/06/01 02:06:12;;;;;;;0.05;0.05;;;;;;;13.96;65.76;101438.69;5102920;28;20035;-76
2022/06/01 02:09:01;;;;;;;0.00;0.00;;;;;;;13.97;65.72;101450.19;5105601;28;20028;-76
2022/06/01 02:14:19;;;;;;;0.10;0.10;;;;;;;13.93;66.27;101445.88;5068365;28;20056;-76
2022/06/01 02:16:52;;;;;;;0.10;0.10;;;;;;;13.92;66.29;101442.34;5067619;28;20494;-75
2022/06/01 02:19:26;;;;;;;0.10;0.10;;;;;;;13.96;66.01;101435.16;5047135;28;20108;-77
2022/06/01 02:21:54;;;;;;;0.10;0.10;;;;;;;13.93;66.41;101445.88;5046912;28;20030;-77
2022/06/01 02:24:22;;;;;;;0.00;0.00;;;;;;;13.94;66.34;101444.97;5049757;28;20059;-76
2022/06/01 02:26:50;;;;;;;0.10;0.10;;;;;;;13.97;66.47;101439.53;5039796;28;20034;-76
2022/06/01 02:29:25;;;;;;;0.00;0.00;;;;;;;14.03;66.31;101447.38;5050882;28;20551;-76
2022/06/01 02:31:52;;;;;;;0.10;0.10;;;;;;;14.04;66.14;101454.47;5047282;28;20029;-76
2022/06/01 02:34:19;;;;;;;0.10;0.10;;;;;;;14.06;66.04;101455.31;5046723;28;20064;-76
2022/06/01 02:36:46;;;;;;;0.10;0.10;;;;;;;14.06;65.87;101460.63;5046445;28;20151;-76
2022/06/01 02:39:15;;;;;;;0.10;0.10;;;;;;;14.11;66.37;101450.75;5047286;28;20037;-76
2022/06/01 02:44:28;;;;;;;0.10;0.10;;;;;;;14.15;65.94;101460.41;5039259;28;20071;-81
2022/06/01 02:46:54;;;;;;;0.55;0.55;;;;;;;14.09;66.11;101465.88;5041771;28;20048;-81
2022/06/01 02:49:21;;;;;;;0.00;0.00;;;;;;;14.06;66.19;101466.84;5044942;28;20555;-81
2022/06/01 02:51:47;;;;;;;0.00;0.00;;;;;;;13.95;66.61;101450.25;5039035;28;20065;-81
2022/06/01 02:54:13;;;;;;;0.57;0.57;;;;;;;13.84;67.10;101439.84;5042514;28;20037;-82
2022/06/01 02:56:39;;;;;;;0.10;0.10;;;;;;;13.84;66.67;101445.16;5033406;28;20032;-83
2022/06/01 02:59:06;;;;;;;0.28;0.28;;;;;;;13.79;66.12;101439.06;5041497;28;20040;-83
2022/06/01 03:01:36;;;;;;;0.10;0.10;;;;;;;13.74;66.47;101436.53;5030265;28;20061;-82
2022/06/01 03:04:03;;;;;;;0.10;0.10;;;;;;;13.74;66.49;101438.31;5038430;28;20576;-82
2022/06/01 03:06:29;;;;;;;0.08;0.08;;;;;;;13.69;66.91;101429.56;5036930;28;20041;-82
2022/06/01 03:08:55;;;;;;;1.30;0.65;;;;;;;13.67;66.55;101428.72;5011639;28;20033;-82
2022/06/01 03:11:21;;;;;;;4.07;0.75;;;;;;;13.64;67.28;101427.00;5036996;28;20474;-83
2022/06/01 03:13:48;;;;;;;0.03;0.03;;;;;;;13.58;66.72;101428.03;5029838;28;20076;-83
2022/06/01 03:16:14;;;;;;;0.05;0.05;;;;;;;13.52;67.05;101424.63;5037640;28;20124;-81
2022/06/01 03:18:40;;;;;;;0.00;0.00;;;;;;;13.42;67.04;101432.81;5035887;28;20109;-83
2022/06/01 03:21:06;;;;;;;0.10;0.10;;;;;;;13.36;66.57;101426.75;5034301;28;20083;-84
2022/06/01 03:23:32;;;;;;;0.00;0.00;;;;;;;13.27;66.86;101423.38;5013913;28;20105;-83
2022/06/01 03:25:58;;;;;;;0.10;0.10;;;;;;;13.21;67.10;101431.47;5023599;28;20105;-82
2022/06/01 03:28:25;;;;;;;0.10;0.10;;;;;;;13.11;66.83;101428.13;5016712;28;20354;-82
2022/06/01 03:30:51;;;;;;;0.35;0.35;;;;;;;13.02;66.85;101423.03;5027330;28;20112;-82
2022/06/01 03:33:17;;;;;;;0.10;0.10;;;;;;;12.98;66.34;101426.63;5024736;28;20045;-82
2022/06/01 03:35:43;;;;;;;0.03;0.03;;;;;;;12.92;66.53;101424.09;5037586;28;20039;-82
2022/06/01 03:38:09;;;;;;;0.03;0.03;;;;;;;12.84;66.55;101428.72;5036409;28;20042;-82
2022/06/01 03:40:37;;;;;;;0.00;0.00;;;;;;;12.80;66.92;101435.88;5025281;28;20033;-83
2022/06/01 03:43:04;;;;;;;0.08;0.08;;;;;;;12.74;66.53;101434.19;5030482;28;20049;-82
2022/06/01 03:46:02;;;;;;;0.10;0.10;;;;;;;12.68;66.62;101430.78;5035328;28;20044;-83
2022/06/01 03:48:17;;;;;;;0.10;0.10;;;;;;;12.61;66.32;101438.88;5025343;28;20041;-83
2022/06/01 03:50:44;;;;;;;0.00;0.00;;;;;;;12.54;66.89;101437.25;5032400;28;20041;-82
2022/06/01 03:53:10;;;;;;;0.03;0.03;;;;;;;12.50;66.86;101440.88;5017158;28;20403;-82
2022/06/01 03:55:39;;;;;;;0.10;0.10;;;;;;;12.44;66.81;101441.84;5019766;28;20033;-83
2022/06/01 03:58:05;;;;;;;0.10;0.10;;;;;;;12.42;66.63;101442.78;5024532;28;20044;-81
2022/06/01 04:00:32;;;;;;;0.30;0.30;;;;;;;12.39;66.57;101442.84;5023276;28;20030;-82
2022/06/01 04:02:58;;;;;;;0.10;0.10;;;;;;;12.34;66.36;101450.03;5014395;28;20041;-82
2022/06/01 04:05:25;;;;;;;0.10;0.10;;;;;;;12.28;66.19;101446.56;5020418;28;20036;-82
2022/06/01 04:07:51;;;;;;;0.10;0.10;;;;;;;12.23;66.84;101444.91;5028799;28;20025;-82
2022/06/01 04:10:17;;;;;;;0.00;0.00;;;;;;;12.18;66.91;101452.06;5023042;28;20034;-82
2022/06/01 04:12:43;;;;;;;0.10;0.10;;;;;;;12.12;67.00;101450.38;5021369;28;20113;-81
2022/06/01 04:15:10;;;;;;;0.10;0.10;;;;;;;12.10;66.84;101453.06;5031556;28;20405;-82
2022/06/01 04:17:37;;;;;;;0.10;0.10;;;;;;;12.11;66.89;101459.25;5017315;28;20541;-83
2022/06/01 04:20:05;;;;;;;0.10;0.10;;;;;;;12.11;66.97;101459.25;5017903;28;20125;-83
2022/06/01 04:22:32;;;;;;;0.10;0.10;;;;;;;12.11;66.75;101453.94;5015450;28;20022;-82
2022/06/01 04:24:58;;;;;;;0.10;0.10;;;;;;;12.09;66.55;101455.75;5025457;28;20036;-82
2022/06/01 04:27:24;;;;;;;0.70;0.70;;;;;;;12.06;66.90;101458.44;5032530;28;20346;-82
2022/06/01 04:29:50;;;;;;;0.10;0.10;;;;;;;12.01;66.12;101453.22;5025494;28;20033;-82
2022/06/01 04:32:24;;;;;;;0.10;0.10;;;;;;;12.03;66.60;101450.56;5023840;28;20057;-82
2022/06/01 04:34:50;;;;;;;0.10;0.10;;;;;;;11.97;66.50;101452.41;5015792;28;20030;-81
2022/06/01 04:37:16;;;;;;;0.10;0.10;;;;;;;11.98;66.55;101445.31;5021659;28;20048;-82
2022/06/01 04:39:42;;;;;;;0.10;0.10;;;;;;;11.98;66.35;101447.97;5029477;28;20037;-82
2022/06/01 04:42:08;;;;;;;0.10;0.10;;;;;;;12.01;66.61;101447.03;5021641;28;20033;-82
2022/06/01 04:44:35;;;;;;;0.10;0.10;;;;;;;11.98;67.04;101448.81;5020090;28;20056;-82
2022/06/01 04:47:01;;;;;;;0.10;0.10;;;;;;;12.02;67.30;101444.34;5020364;28;20038;-82
2022/06/01 04:49:27;;;;;;;0.10;0.10;;;;;;;12.04;66.92;101452.31;5014739;28;20481;-82
2022/06/01 04:51:53;;;;;;;0.10;0.10;;;;;;;12.05;67.32;101446.97;5016190;28;20436;-82
2022/06/01 04:54:19;;;;;;;0.10;0.10;;;;;;;12.10;67.52;101449.53;5017858;28;20456;-83
2022/06/01 04:56:45;;;;;;;0.00;0.00;;;;;;;12.13;67.85;101445.03;5022138;28;20049;-82
2022/06/01 04:59:11;;;;;;;0.10;0.10;;;;;;;12.14;67.33;101449.44;5012080;28;20030;-82
2022/06/01 05:01:37;;;;;;;0.10;0.10;;;;;;;12.20;67.59;101453.81;5010334;28;20040;-82
2022/06/01 05:04:03;;;;;;;0.00;0.00;;;;;;;12.19;67.95;101462.66;5014079;28;20033;-82
2022/06/01 05:06:29;;;;;;;0.03;0.03;;;;;;;12.26;67.18;101452.81;5016328;28;20030;-82
2022/06/01 05:08:55;;;;;;;0.08;0.08;;;;;;;12.29;67.89;101464.25;5029017;28;20049;-82
2022/06/01 05:11:22;;;;;;;0.10;0.10;;;;;;;12.35;68.18;101451.75;5023234;28;20033;-83
2022/06/01 05:13:48;;;;;;;0.10;0.10;;;;;;;12.37;68.16;101455.28;5015622;28;20034;-82
2022/06/01 05:16:14;;;;;;;0.20;0.20;;;;;;;12.42;67.82;101458.72;5010988;28;20029;-82
2022/06/01 05:18:40;;;;;;;0.00;0.00;;;;;;;12.51;67.96;101457.69;5016581;28;20064;-82
2022/06/01 05:21:07;;;;;;;0.10;0.10;;;;;;;12.59;68.16;101467.28;5023479;28;20032;-81
2022/06/01 05:23:33;;;;;;;0.00;0.00;;;;;;;12.69;67.88;101467.97;5021888;28;20520;-82
2022/06/01 05:25:59;;;;;;;0.00;0.00;;;;;;;12.75;68.38;101456.38;5015946;28;20029;-82
2022/06/01 05:28:28;;;;;;;0.00;0.00;;;;;;;12.84;68.02;101464.16;5011576;28;20022;-82
2022/06/01 05:30:57;;;;;;;0.00;0.00;;;;;;;12.93;68.33;101469.31;5020980;28;20037;-83
2022/06/01 05:33:23;;;;;;;0.63;0.63;;;;;;;12.98;68.84;101466.53;5017608;28;20041;-83
2022/06/01 05:35:49;;;;;;;0.10;0.10;;;;;;;13.07;68.51;101468.13;5017839;28;20034;-83
2022/06/01 05:38:15;;;;;;;0.10;0.10;;;;;;;13.15;69.49;101466.19;5018338;28;20025;-84
2022/06/01 05:40:41;;;;;;;0.00;0.00;;;;;;;13.20;69.33;101466.09;5021733;28;20064;-83
2022/06/01 05:43:10;;;;;;;0.95;0.95;;;;;;;13.29;70.08;101470.38;5016320;28;20025;-83
2022/06/01 05:45:37;;;;;;;0.00;0.00;;;;;;;13.42;69.42;101474.53;5029115;28;20029;-83
2022/06/01 05:48:03;;;;;;;0.10;0.10;;;;;;;13.50;69.19;101477.91;5031602;28;20438;-84
2022/06/01 05:50:29;;;;;;;0.20;0.20;;;;;;;13.57;69.14;101474.19;5010597;28;20048;-84
2022/06/01 05:52:55;;;;;;;0.13;0.13;;;;;;;13.71;69.29;101476.53;5020351;28;20108;-83
2022/06/01 05:55:21;;;;;;;0.20;0.20;;;;;;;13.72;69.17;101472.09;5017646;28;20405;-83
2022/06/01 05:57:48;;;;;;;0.10;0.10;;;;;;;13.80;68.88;101475.44;5010391;28;20038;-83
2022/06/01 06:00:16;;;;;;;0.10;0.10;;;;;;;13.84;69.14;101477.13;5012575;28;20042;-83
2022/06/01 06:02:43;;;;;;;0.90;0.90;;;;;;;13.91;69.21;101486.72;5021208;28;20034;-82
2022/06/01 06:07:57;;;;;;;2.35;0.45;;;;;;;14.12;69.10;101484.47;5010569;28;20498;-82
2022/06/01 06:10:24;;;;;;;0.00;0.00;;;;;;;14.18;69.10;101479.00;5013560;28;20034;-82
2022/06/01 06:12:50;;;;;;;0.10;0.10;;;;;;;14.29;68.87;101484.03;5013632;28;20053;-83
2022/06/01 06:15:17;;;;;;;0.20;0.20;;;;;;;14.30;69.21;101490.25;5018829;28;20038;-83
2022/06/01 06:17:43;;;;;;;0.10;0.10;;;;;;;14.45;68.68;101481.84;5014085;28;20117;-83
2022/06/01 06:20:11;;;;;;;0.10;0.10;;;;;;;14.50;69.09;101481.75;5017422;28;20520;-82
2022/06/01 06:22:37;;;;;;;0.10;0.10;;;;;;;14.60;68.95;101491.25;5015478;28;20033;-84
2022/06/01 06:25:04;;;;;;;0.00;0.00;;;;;;;14.66;68.71;101483.09;5017366;28;20116;-84
2022/06/01 06:27:30;;;;;;;0.13;0.13;;;;;;;14.71;68.23;101486.53;5017213;28;20040;-84
2022/06/01 06:29:56;;;;;;;0.00;0.00;;;;;;;14.76;68.21;101491.75;5014977;28;20114;-83
2022/06/01 06:32:25;;;;;;;1.65;1.45;;;;;;;14.85;67.77;101495.94;5015317;28;20504;-83
2022/06/01 06:34:51;;;;;;;0.10;0.10;;;;;;;14.91;68.28;101497.59;5010389;28;20036;-83
2022/06/01 06:37:18;;;;;;;0.10;0.10;;;;;;;14.92;67.13;101507.34;5017566;28;20061;-82
2022/06/01 06:39:44;;;;;;;0.13;0.13;;;;;;;14.97;67.01;101505.44;5018419;28;20108;-82
2022/06/01 06:42:10;;;;;;;0.10;0.10;;;;;;;15.11;66.62;101505.03;5016876;28;20052;-84
2022/06/01 06:44:37;;;;;;;0.20;0.20;;;;;;;15.19;66.60;101509.22;5014359;28;20116;-84
2022/06/01 06:47:06;;;;;;;0.65;0.65;;;;;;;15.26;66.01;101509.06;5014199;28;20034;-84
2022/06/01 06:49:32;;;;;;;0.00;0.00;;;;;;;15.32;64.74;101511.53;5015774;28;20462;-84
2022/06/01 06:51:59;;;;;;;0.10;0.10;;;;;;;15.42;64.09;101515.69;5015038;28;20026;-84
2022/06/01 06:54:27;;;;;;;0.10;0.10;;;;;;;15.65;64.16;101512.34;5016229;28;20033;-84
2022/06/01 06:56:53;;;;;;;0.32;0.32;;;;;;;15.80;64.81;101516.34;4998192;28;20038;-83
2022/06/01 06:59:19;;;;;;;0.10;0.10;;;;;;;15.81;62.83;101510.06;5015227;28;20034;-82
2022/06/01 07:01:45;;;;;;;0.28;0.28;;;;;;;15.93;61.76;101513.31;5017603;28;20061;-84
2022/06/01 07:04:11;;;;;;;0.00;0.00;;;;;;;16.07;62.38;101512.88;5016588;28;20033;-83
2022/06/01 07:06:38;;;;;;;0.00;0.00;;;;;;;16.17;61.14;101509.84;5017353;28;20030;-82
2022/06/01 07:09:04;;;;;;;0.00;0.00;;;;;;;16.25;59.06;101514.03;5017635;28;20056;-82
2022/06/01 07:11:31;;;;;;;0.10;0.10;;;;;;;16.34;59.53;101513.75;5016930;28;20034;-82
2022/06/01 07:13:58;;;;;;;0.10;0.10;;;;;;;16.19;57.51;101523.16;5018311;28;20030;-82
2022/06/01 07:16:27;;;;;;;0.10;0.10;;;;;;;16.34;60.09;101519.09;5018967;28;20030;-82
2022/06/01 07:18:55;;;;;;;0.00;0.00;;;;;;;16.21;59.13;101525.78;5018443;28;20378;-82
2022/06/01 07:21:22;;;;;;;2.45;0.68;;;;;;;16.04;57.70;101524.53;5017799;28;20124;-82
2022/06/01 07:23:49;;;;;;;0.10;0.10;;;;;;;16.05;59.42;101533.41;5018071;28;20026;-83
2022/06/01 07:26:20;;;;;;;0.00;0.00;;;;;;;16.03;59.17;101533.47;5018718;28;20497;-82
2022/06/01 07:28:46;;;;;;;0.10;0.10;;;;;;;16.12;59.96;101527.81;5016355;28;20038;-83
2022/06/01 07:31:13;;;;;;;0.10;0.10;;;;;;;16.18;59.21;101534.78;5017931;28;20504;-84
2022/06/01 07:33:39;;;;;;;0.08;0.08;;;;;;;16.16;56.51;101523.25;5018157;28;20030;-82
2022/06/01 07:36:08;;;;;;;0.10;0.10;;;;;;;16.28;58.10;101532.69;5017913;28;20040;-81
2022/06/01 07:44:25;;;;;;;0.10;0.10;;;;;;;16.70;55.62;101531.25;5014631;28;20058;-83
2022/06/01 07:46:52;;;;;;;0.17;0.17;;;;;;;16.76;55.55;101528.38;5018387;28;20050;-81
2022/06/01 07:49:18;;;;;;;0.15;0.15;;;;;;;16.83;56.29;101537.94;5018519;28;20401;-82
2022/06/01 07:51:44;;;;;;;0.15;0.15;;;;;;;16.66;54.53;101527.84;5019618;28;20052;-83
2022/06/01 07:54:11;;;;;;;0.00;0.00;;;;;;;16.76;54.97;101526.59;5020552;28;20037;-83
2022/06/01 07:56:39;;;;;;;0.00;0.00;;;;;;;16.91;55.85;101527.88;5019989;28;20040;-83
2022/06/01 07:59:10;;;;;;;0.10;0.10;;;;;;;16.87;55.04;101528.00;5016769;28;20046;-84
2022/06/01 08:01:37;;;;;;;0.10;0.10;;;;;;;17.05;54.09;101534.53;5016719;28;20029;-84
2022/06/01 08:04:04;;;;;;;0.10;0.10;;;;;;;17.14;54.51;101529.72;5018977;28;20113;-84
2022/06/01 08:06:33;;;;;;;0.00;0.00;;;;;;;17.22;53.57;101533.91;5018724;28;20034;-82
2022/06/01 08:08:59;;;;;;;0.00;0.00;;;;;;;17.37;53.78;101536.03;5014800;28;20033;-82
2022/06/01 08:14:14;;;;;;;0.00;0.00;;;;;;;17.29;53.27;101532.75;5011400;28;20108;-82
2022/06/01 08:16:42;;;;;;;0.03;0.03;;;;;;;17.35;53.23;101532.53;5015451;28;20033;-80
2022/06/01 08:19:10;;;;;;;0.25;0.25;;;;;;;17.60;53.83;101528.94;5016654;28;20034;-80
2022/06/01 08:21:37;;;;;;;0.10;0.10;;;;;;;17.59;50.57;101540.56;5015684;28;20025;-84
2022/06/01 08:24:05;;;;;;;0.10;0.10;;;;;;;17.61;50.15;101522.63;5014564;28;20030;-83
2022/06/01 08:26:32;;;;;;;0.00;0.00;;;;;;;17.65;51.38;101540.34;5014908;28;20032;-84
2022/06/01 08:28:58;;;;;;;0.10;0.10;;;;;;;17.61;51.91;101538.72;5012971;28;20116;-84
2022/06/01 08:31:27;;;;;;;0.10;0.10;;;;;;;17.36;49.32;101553.03;5013592;28;20018;-84
2022/06/01 08:33:54;;;;;;;0.00;0.00;;;;;;;17.39;50.30;101544.88;5014033;28;20025;-84
2022/06/01 08:36:20;;;;;;;0.15;0.15;;;;;;;17.26;49.84;101539.09;5014746;28;20314;-81
2022/06/01 08:38:46;;;;;;;0.10;0.10;;;;;;;17.24;50.25;101538.28;5014317;28;20029;-81
2022/06/01 08:41:15;;;;;;;0.00;0.00;;;;;;;17.47;51.58;101539.25;5028079;22;20394;-79
2022/06/01 08:43:45;;;;;;;0.65;0.63;;;;;;;17.68;51.58;101529.47;5032318;28;20056;-76
2022/06/01 08:46:13;;;;;;;0.00;0.00;;;;;;;17.78;49.73;101538.94;5033715;28;20110;-77
2022/06/01 08:48:43;;;;;;;0.00;0.00;;;;;;;17.79;49.59;101543.38;5034250;28;20034;-78
2022/06/01 08:51:10;;;;;;;0.00;0.00;;;;;;;17.82;50.13;101544.16;5030948;28;20061;-77
2022/06/01 08:53:37;;;;;;;0.00;0.00;;;;;;;17.82;49.18;101541.47;5030790;28;20041;-77
2022/06/01 09:01:44;;;;;;;0.28;0.28;;;;;;;17.99;47.11;101554.25;5110106;27;20396;-77
2022/06/01 09:06:57;;;;;;;0.10;0.10;;;;;;;18.08;47.16;101549.41;5107542;27;20343;-77
2022/06/01 09:09:37;;;;;;;0.10;0.10;;;;;;;18.35;47.56;101553.69;5108270;28;20061;-79
2022/06/01 09:12:04;;;;;;;0.00;0.00;;;;;;;18.24;46.81;101555.03;5109988;28;20031;-79
2022/06/01 09:14:35;;;;;;;0.10;0.10;;;;;;;18.13;46.27;101556.38;5112603;28;20035;-79
2022/06/01 09:17:02;;;;;;;0.00;0.00;;;;;;;18.13;45.43;101556.38;5109286;28;20028;-79
2022/06/01 09:22:37;;;;;;;0.10;0.10;;;;;;;18.19;45.77;101566.84;5111940;28;20059;-79
2022/06/01 09:27:48;;;;;;;0.05;0.05;;;;;;;18.54;44.46;101564.53;5112427;27;20381;-78
2022/06/01 09:30:32;;;;;;;0.75;0.75;;;;;;;18.37;44.32;101571.47;5108609;28;20020;-78
2022/06/01 09:33:24;;;;;;;31.83;1.45;;;;;;;18.44;45.61;101566.72;5079603;28;20111;-78
2022/06/01 09:44:05;;;;;;;0.05;0.05;;;;;;;18.60;44.75;101558.91;5068552;28;20782;-77
2022/06/01 09:49:32;;;;;;;0.57;0.57;;;;;;;18.85;44.46;101557.84;5109392;27;20384;-77
2022/06/01 09:52:02;;;;;;;0.00;0.00;;;;;;;18.83;44.86;101562.41;5109191;28;20702;-76
2022/06/01 09:54:32;;;;;;;0.10;0.10;;;;;;;18.73;44.45;101565.50;5109859;28;20484;-79
2022/06/01 09:57:17;;;;;;;0.10;0.10;;;;;;;18.89;44.01;101559.44;5110055;28;20060;-80
2022/06/01 10:08:10;;;;;;;0.10;0.10;;;;;;;18.72;44.14;101584.38;5061324;28;20397;-78
2022/06/01 10:10:38;;;;;;;0.05;0.05;;;;;;;18.57;44.10;101575.16;5047839;28;20125;-78
2022/06/01 10:13:06;;;;;;;0.10;0.10;;;;;;;18.35;42.76;101588.56;5044279;28;20033;-77
2022/06/01 10:15:46;;;;;;;0.28;0.28;;;;;;;18.47;43.28;101576.44;5043189;28;20064;-76
2022/06/01 10:18:21;;;;;;;0.10;0.10;;;;;;;18.78;45.16;101575.16;5045719;28;20025;-76
2022/06/01 10:20:55;;;;;;;0.13;0.13;;;;;;;18.92;43.51;101572.78;5046096;28;20442;-78
2022/06/01 10:23:34;;;;;;;0.10;0.10;;;;;;;19.10;43.34;101575.63;5045227;28;20033;-77
2022/06/01 10:26:15;;;;;;;0.10;0.10;;;;;;;19.01;42.29;101588.50;5042065;28;20044;-78
2022/06/01 10:28:46;;;;;;;0.10;0.10;;;;;;;19.00;42.45;101592.13;5047656;28;20033;-78
2022/06/01 10:31:25;;;;;;;0.10;0.10;;;;;;;18.72;42.69;101598.66;5047913;28;20025;-77
2022/06/01 10:33:59;;;;;;;0.10;0.10;;;;;;;18.75;42.22;101603.91;5051796;28;20029;-79
2022/06/01 10:36:48;;;;;;;0.20;0.20;;;;;;;18.92;42.30;101594.28;5049108;28;20017;-76
2022/06/01 10:39:23;;;;;;;0.00;0.00;;;;;;;18.92;42.42;101595.13;5044881;28;20574;-79
2022/06/01 10:44:56;;;;;;;0.10;0.10;;;;;;;19.18;43.78;101605.72;5149904;27;20385;-75
2022/06/01 10:55:31;;;;;;;0.00;0.00;;;;;;;19.00;43.51;101597.47;5066005;28;20888;-74
2022/06/01 10:57:59;;;;;;;;;;;;;;;19.34;43.49;101596.00;5069260;28;20115;-76
2022/06/01 11:00:39;;;;;;;0.10;0.10;;;;;;;19.33;42.01;101613.06;5065444;28;19916;-75
2022/06/01 11:06:30;;;;;;;0.10;0.10;;;;;;;19.54;42.15;101607.69;5102850;27;20939;-75
2022/06/01 11:15:17;;;;;;;0.10;0.10;;;;;;;19.81;41.62;101620.78;5107469;27;20392;-76
2022/06/01 11:17:55;;;;;;;0.00;0.00;;;;;;;19.65;41.30;101617.94;5108352;28;20032;-76
2022/06/01 11:20:49;;;;;;;0.10;0.10;;;;;;;19.58;41.51;101627.19;5108798;28;20052;-75
2022/06/01 11:23:33;;;;;;;0.65;0.65;;;;;;;19.39;41.28;101631.59;5107811;28;20028;-76
2022/06/01 11:26:32;;;;;;;0.10;0.10;;;;;;;19.62;41.21;101632.38;5078047;28;20115;-75
2022/06/01 11:31:49;;;;;;;0.10;0.10;;;;;;;19.60;41.32;101639.66;5105949;27;20137;-76
2022/06/01 11:34:24;;;;;;;0.20;0.20;;;;;;;19.67;41.71;101642.94;5103667;28;20024;-76
2022/06/01 11:37:00;;;;;;;0.20;0.20;;;;;;;19.67;40.58;101659.91;5099907;28;20030;-75
2022/06/01 11:44:53;;;;;;;0.10;0.10;;;;;;;19.54;41.94;101635.41;5110325;27;20335;-76
2022/06/01 11:47:22;;;;;;;0.10;0.10;;;;;;;19.44;42.72;101644.84;5107645;28;20080;-76
2022/06/01 11:58:21;;;;;;;0.10;0.10;;;;;;;19.98;42.11;101631.66;5108378;27;20745;-76
2022/06/01 12:09:01;;;;;;;0.43;0.43;;;;;;;20.30;41.59;101649.88;5108726;27;20749;-76
2022/06/01 12:11:47;;;;;;;0.00;0.00;;;;;;;20.42;39.34;101633.16;5107954;28;20063;-76
2022/06/01 12:14:36;;;;;;;0.10;0.10;;;;;;;20.62;39.17;101640.25;5107346;28;20038;-76
2022/06/01 12:20:19;;;;;;;0.20;0.20;;;;;;;20.67;39.35;101642.69;5109168;27;20372;-76
2022/06/01 12:28:31;;;;;;;0.10;0.10;;;;;;;20.73;40.05;101652.34;5069188;28;20389;-77
2022/06/01 12:31:11;;;;;;;0.10;0.10;;;;;;;20.73;38.93;101657.72;5068838;28;20037;-77
2022/06/01 12:34:03;;;;;;;0.10;0.10;;;;;;;21.00;39.18;101642.00;5068896;28;20033;-77
2022/06/01 12:36:50;;;;;;;0.05;0.05;;;;;;;21.05;39.52;101641.72;5068933;28;20078;-77
2022/06/01 12:39:21;;;;;;;0.45;0.45;;;;;;;21.12;38.81;101643.16;5062113;28;20428;-77
2022/06/01 12:41:53;;;;;;;0.10;0.10;;;;;;;21.12;37.96;101644.06;5055425;28;20052;-77
2022/06/01 12:44:21;;;;;;;;;;;;;;;21.12;37.81;101653.94;5064995;28;20128;-77
2022/06/01 12:46:51;;;;;;;0.00;0.00;;;;;;;20.76;38.06;101652.16;5068690;28;19912;-77
2022/06/01 12:52:08;;;;;;;0.10;0.10;;;;;;;20.60;37.96;101669.06;5112327;27;1203822;-76
2022/06/01 12:57:41;;;;;;;0.10;0.10;;;;;;;20.84;40.52;101660.75;5142658;27;20383;-76
2022/06/01 13:02:46;;;;;;;0.10;0.10;;;;;;;20.85;39.39;101646.34;5108862;27;20387;-76
2022/06/01 13:05:20;;;;;;;0.10;0.10;;;;;;;21.15;38.29;101653.81;5105395;28;20096;-76
2022/06/01 13:07:50;;;;;;;0.10;0.10;;;;;;;21.40;37.39;101655.22;5119810;28;20196;-76
2022/06/01 13:10:26;;;;;;;0.13;0.13;;;;;;;21.48;36.86;101661.06;5129239;27;20023;-76
2022/06/01 13:13:03;;;;;;;0.05;0.05;;;;;;;21.21;36.38;101661.56;5127746;28;20046;-76
2022/06/01 13:15:30;;;;;;;0.47;0.47;;;;;;;21.07;36.51;101661.41;5128908;27;20461;-76
2022/06/01 13:18:03;;;;;;;0.00;0.00;;;;;;;21.40;36.52;101668.69;5127232;28;20035;-75
2022/06/01 13:25:51;;;;;;;0.47;0.47;;;;;;;21.96;36.47;101667.47;5088419;28;20393;-76
2022/06/01 13:28:18;;;;;;;0.10;0.10;;;;;;;21.83;36.92;101661.00;5088246;28;20040;-75
2022/06/01 13:30:45;;;;;;;0.10;0.10;;;;;;;21.56;37.60;101669.66;5087828;28;20127;-76
2022/06/01 13:33:36;;;;;;;0.05;0.05;;;;;;;21.24;37.70;101671.31;5088117;28;20033;-75
2022/06/01 13:36:07;;;;;;;0.03;0.03;;;;;;;20.94;38.02;101675.50;5079565;28;20035;-75
2022/06/01 13:38:41;;;;;;;0.08;0.08;;;;;;;20.82;38.38;101682.38;5085030;28;20028;-76
2022/06/01 13:41:16;;;;;;;0.10;0.10;;;;;;;20.60;38.90;101682.53;5087167;28;20490;-76
2022/06/01 13:43:45;;;;;;;0.30;0.30;;;;;;;20.94;38.69;101675.50;5087671;28;20028;-76
2022/06/01 13:46:14;;;;;;;0.10;0.10;;;;;;;21.20;37.89;101681.38;5087893;28;20039;-76
2022/06/01 13:48:56;;;;;;;0.10;0.10;;;;;;;21.29;37.95;101693.50;5087946;28;20078;-76